createdAt,value
2019-04-03T00:01:09.282Z,98248.33
2019-04-03T00:03:37.684Z,98248.28
2019-04-03T00:06:06.127Z,98253.02
2019-04-03T00:08:36.274Z,98246.95
2019-04-03T00:11:04.868Z,98244.75
2019-04-03T00:13:33.334Z,98238.27
2019-04-03T00:16:01.792Z,98236.05
2019-04-03T00:18:30.033Z,98232.08
2019-04-03T00:20:58.486Z,98229.39
2019-04-03T00:23:26.727Z,98227.55
2019-04-03T00:25:54.965Z,98224.00
2019-04-03T00:28:23.433Z,98229.94
2019-04-03T00:30:52.906Z,98220.00
2019-04-03T00:33:22.986Z,98219.50
2019-04-03T00:35:53.672Z,98224.55
2019-04-03T00:38:23.979Z,98216.31
2019-04-03T00:40:53.881Z,98208.50
2019-04-03T00:43:24.352Z,98201.53
2019-04-03T00:45:54.040Z,98195.39
2019-04-03T00:48:22.071Z,98201.72
2019-04-03T00:50:50.290Z,98194.23
2019-04-03T00:53:18.669Z,98192.41
2019-04-03T00:55:46.834Z,98199.98
2019-04-03T00:58:36.367Z,98197.70
2019-04-03T01:01:06.537Z,98200.13
2019-04-03T01:03:35.008Z,98197.45
2019-04-03T01:06:03.236Z,98196.45
2019-04-03T01:08:31.719Z,98198.06
2019-04-03T01:11:00.432Z,98189.83
2019-04-03T01:13:31.003Z,98197.03
2019-04-03T01:15:59.104Z,98206.38
2019-04-03T01:18:27.328Z,98214.55
2019-04-03T01:20:55.788Z,98211.63
2019-04-03T01:23:24.026Z,98209.61
2019-04-03T01:25:52.389Z,98208.13
2019-04-03T01:28:20.686Z,98215.59
2019-04-03T01:30:49.105Z,98202.05
2019-04-03T01:33:17.356Z,98194.51
2019-04-03T01:35:47.130Z,98189.48
2019-04-03T01:38:15.592Z,98188.30
2019-04-03T01:40:43.826Z,98187.55
2019-04-03T01:43:12.418Z,98185.03
2019-04-03T01:45:40.825Z,98188.50
2019-04-03T01:48:09.893Z,98184.70
2019-04-03T01:50:38.427Z,98183.83
2019-04-03T01:53:06.885Z,98176.97
2019-04-03T01:55:35.212Z,98177.42
2019-04-03T01:58:06.302Z,98179.58
2019-04-03T02:00:33.619Z,98170.95
2019-04-03T02:03:02.481Z,98173.11
2019-04-03T02:05:30.919Z,98163.67
2019-04-03T02:07:59.519Z,98167.92
2019-04-03T02:10:27.977Z,98172.20
2019-04-03T02:12:56.432Z,98167.05
2019-04-03T02:15:24.672Z,98167.95
2019-04-03T02:17:55.109Z,98168.41
2019-04-03T02:20:22.970Z,98162.88
2019-04-03T02:22:51.183Z,98156.89
2019-04-03T02:25:19.658Z,98156.47
2019-04-03T02:27:48.090Z,98147.05
2019-04-03T02:30:16.501Z,98147.92
2019-04-03T02:32:44.955Z,98150.08
2019-04-03T02:35:13.270Z,98147.92
2019-04-03T02:37:41.743Z,98140.64
2019-04-03T02:40:10.421Z,98139.41
2019-04-03T02:42:41.570Z,98138.56
2019-04-03T02:45:09.061Z,98136.86
2019-04-03T02:47:37.309Z,98134.73
2019-04-03T02:50:05.819Z,98132.55
2019-04-03T02:52:34.119Z,98129.91
2019-04-03T02:55:02.508Z,98131.59
2019-04-03T02:57:32.328Z,98133.70
2019-04-03T03:00:01.094Z,98131.08
2019-04-03T03:02:29.289Z,98134.88
2019-04-03T03:04:57.529Z,98136.12
2019-04-03T03:07:25.991Z,98136.98
2019-04-03T03:09:54.841Z,98136.56
2019-04-03T03:12:25.208Z,98136.12
2019-04-03T03:14:53.837Z,98135.67
2019-04-03T03:17:23.530Z,98132.23
2019-04-03T03:19:52.174Z,98131.41
2019-04-03T03:22:20.943Z,98132.70
2019-04-03T03:24:49.828Z,98130.18
2019-04-03T03:27:18.421Z,98127.13
2019-04-03T03:29:46.732Z,98109.94
2019-04-03T03:32:21.343Z,98106.08
2019-04-03T03:34:54.843Z,98103.03
2019-04-03T03:37:15.260Z,98110.29
2019-04-03T03:39:44.554Z,98109.39
2019-04-03T03:42:12.960Z,98107.16
2019-04-03T03:44:45.510Z,98107.97
2019-04-03T03:47:11.598Z,98109.20
2019-04-03T03:49:40.630Z,98114.32
2019-04-03T03:52:08.927Z,98108.28
2019-04-03T03:54:37.434Z,98119.45
2019-04-03T03:57:07.355Z,98126.75
2019-04-03T03:59:35.834Z,98111.30
2019-04-03T04:02:06.362Z,98110.83
2019-04-03T04:04:34.309Z,98112.53
2019-04-03T04:07:04.454Z,98107.36
2019-04-03T04:09:32.671Z,98114.60
2019-04-03T04:12:04.365Z,98114.58
2019-04-03T04:14:31.003Z,98109.81
2019-04-03T04:16:59.456Z,98108.50
2019-04-03T04:19:30.562Z,98112.78
2019-04-03T04:21:58.097Z,98113.59
2019-04-03T04:24:27.966Z,98111.86
2019-04-03T04:26:56.676Z,98110.96
2019-04-03T04:29:25.061Z,98110.48
2019-04-03T04:31:53.596Z,98114.77
2019-04-03T04:34:21.763Z,98111.74
2019-04-03T04:36:50.287Z,98108.72
2019-04-03T04:39:18.516Z,98109.53
2019-04-03T04:41:46.943Z,98112.10
2019-04-03T04:44:15.286Z,98109.08
2019-04-03T04:46:44.700Z,98110.36
2019-04-03T04:49:13.163Z,98106.95
2019-04-03T04:51:41.410Z,98105.22
2019-04-03T04:54:09.634Z,98108.66
2019-04-03T04:56:38.450Z,98105.25
2019-04-03T04:59:06.683Z,98105.31
2019-04-03T05:01:34.925Z,98107.88
2019-04-03T05:04:03.151Z,98103.13
2019-04-03T05:06:31.393Z,98097.08
2019-04-03T05:08:59.849Z,98094.50
2019-04-03T05:11:28.316Z,98103.91
2019-04-03T05:13:56.621Z,98103.01
2019-04-03T05:16:25.654Z,98100.41
2019-04-03T05:18:54.129Z,98102.47
2019-04-03T05:21:22.746Z,98102.89
2019-04-03T05:23:50.975Z,98101.95
2019-04-03T05:26:21.052Z,98099.39
2019-04-03T05:28:55.902Z,98105.76
2019-04-03T05:31:19.794Z,98101.45
2019-04-03T05:33:48.019Z,98102.31
2019-04-03T05:36:17.710Z,98106.66
2019-04-03T05:38:46.496Z,98098.91
2019-04-03T05:41:15.018Z,98097.63
2019-04-03T05:43:43.217Z,98104.53
2019-04-03T05:46:11.516Z,98103.67
2019-04-03T05:48:39.751Z,98101.57
2019-04-03T05:51:08.014Z,98095.64
2019-04-03T05:53:37.197Z,98101.27
2019-04-03T05:56:06.410Z,98101.27
2019-04-03T05:58:34.868Z,98098.76
2019-04-03T06:01:06.214Z,98103.57
2019-04-03T06:03:40.821Z,98105.81
2019-04-03T06:06:03.241Z,98111.89
2019-04-03T06:08:34.526Z,98109.37
2019-04-03T06:11:03.699Z,98097.45
2019-04-03T06:13:32.193Z,98099.30
2019-04-03T06:16:00.358Z,98099.38
2019-04-03T06:18:31.188Z,98103.31
2019-04-03T06:20:58.783Z,98090.91
2019-04-03T06:23:27.027Z,98090.97
2019-04-03T06:25:55.256Z,98090.17
2019-04-03T06:28:23.723Z,98084.19
2019-04-03T06:30:51.952Z,98078.66
2019-04-03T06:33:20.414Z,98074.88
2019-04-03T06:35:48.944Z,98071.85
2019-04-03T06:38:17.183Z,98074.00
2019-04-03T06:40:45.410Z,98063.70
2019-04-03T06:43:13.648Z,98067.98
2019-04-03T06:45:43.987Z,98067.54
2019-04-03T06:48:12.293Z,98079.16
2019-04-03T06:50:40.524Z,98076.59
2019-04-03T06:53:08.764Z,98087.80
2019-04-03T06:55:37.233Z,98082.62
2019-04-03T06:58:05.702Z,98073.63
2019-04-03T07:00:34.679Z,98074.92
2019-04-03T07:03:04.004Z,98074.94
2019-04-03T07:05:32.642Z,98079.72
2019-04-03T07:08:01.376Z,98069.02
2019-04-03T07:10:31.526Z,98071.22
2019-04-03T07:13:00.005Z,98069.06
2019-04-03T07:15:28.345Z,98070.81
2019-04-03T07:17:56.849Z,98068.71
2019-04-03T07:20:25.302Z,98064.76
2019-04-03T07:22:53.547Z,98069.55
2019-04-03T07:25:21.772Z,98069.06
2019-04-03T07:27:50.034Z,98069.98
2019-04-03T07:30:18.353Z,98067.77
2019-04-03T07:32:46.604Z,98067.78
2019-04-03T07:35:15.354Z,98069.58
2019-04-03T07:37:43.779Z,98067.00
2019-04-03T07:40:12.298Z,98064.00
2019-04-03T07:42:41.022Z,98065.78
2019-04-03T07:45:09.436Z,98064.13
2019-04-03T07:47:37.975Z,98068.00
2019-04-03T07:50:10.419Z,98056.42
2019-04-03T07:52:37.717Z,98061.60
2019-04-03T07:55:06.496Z,98059.49
2019-04-03T07:57:36.697Z,98061.18
2019-04-03T08:00:08.914Z,98056.91
2019-04-03T08:02:37.091Z,98064.67
2019-04-03T08:05:07.002Z,98059.09
2019-04-03T08:07:35.249Z,98058.72
2019-04-03T08:10:05.266Z,98055.25
2019-04-03T08:12:35.712Z,98053.98
2019-04-03T08:15:04.789Z,98052.77
2019-04-03T08:17:33.243Z,98055.76
2019-04-03T08:20:01.493Z,98053.62
2019-04-03T08:22:32.619Z,98049.36
2019-04-03T08:24:59.973Z,98046.78
2019-04-03T08:27:28.206Z,98042.91
2019-04-03T08:29:56.776Z,98047.64
2019-04-03T08:32:25.381Z,98045.09
2019-04-03T08:34:53.601Z,98046.78
2019-04-03T08:37:29.544Z,98041.28
2019-04-03T08:39:52.189Z,98040.02
2019-04-03T08:42:20.457Z,98043.91
2019-04-03T08:44:49.224Z,98040.06
2019-04-03T08:47:17.410Z,98047.33
2019-04-03T08:49:45.641Z,98043.91
2019-04-03T08:52:14.979Z,98034.90
2019-04-03T08:54:43.513Z,98045.62
2019-04-03T08:57:11.971Z,98040.09
2019-04-03T08:59:40.219Z,98039.22
2019-04-03T09:02:12.204Z,98038.86
2019-04-03T09:04:38.750Z,98045.80
2019-04-03T09:07:07.681Z,98038.14
2019-04-03T09:09:36.301Z,98039.92
2019-04-03T09:12:06.866Z,98044.19
2019-04-03T09:14:35.065Z,98037.65
2019-04-03T09:17:03.629Z,98044.04
2019-04-03T09:19:32.076Z,98047.33
2019-04-03T09:22:00.536Z,98045.88
2019-04-03T09:24:29.749Z,98048.63
2019-04-03T09:26:58.606Z,98046.78
2019-04-03T09:29:26.795Z,98048.83
2019-04-03T09:31:56.193Z,98046.12
2019-04-03T09:34:25.112Z,98055.41
2019-04-03T09:36:53.349Z,98057.78
2019-04-03T09:39:21.736Z,98054.55
2019-04-03T09:41:50.911Z,98062.58
2019-04-03T09:44:19.428Z,98057.80
2019-04-03T09:46:47.669Z,98062.78
2019-04-03T09:49:15.901Z,98062.76
2019-04-03T09:51:44.135Z,98061.86
2019-04-03T09:54:12.633Z,98059.26
2019-04-03T09:56:56.109Z,98049.27
2019-04-03T09:59:10.784Z,98054.45
2019-04-03T10:01:39.018Z,98051.59
2019-04-03T10:04:07.484Z,98053.41
2019-04-03T10:06:35.723Z,98051.39
2019-04-03T10:09:05.922Z,98052.77
2019-04-03T10:11:34.164Z,98057.98
2019-04-03T10:14:02.977Z,98055.09
2019-04-03T10:16:34.914Z,98058.98
2019-04-03T10:19:01.592Z,98059.91
2019-04-03T10:21:32.554Z,98062.53
2019-04-03T10:24:00.479Z,98065.89
2019-04-03T10:26:30.992Z,98070.13
2019-04-03T10:28:59.195Z,98062.83
2019-04-03T10:31:27.675Z,98064.92
2019-04-03T10:33:55.906Z,98062.38
2019-04-03T10:36:24.204Z,98054.39
2019-04-03T10:38:52.373Z,98071.06
2019-04-03T10:41:20.831Z,98079.93
2019-04-03T10:43:49.069Z,98078.47
2019-04-03T10:46:18.651Z,98081.88
2019-04-03T10:48:47.484Z,98081.37
2019-04-03T10:51:16.214Z,98084.73
2019-04-03T10:53:44.462Z,98081.67
2019-04-03T10:56:12.921Z,98080.74
2019-04-03T10:58:43.163Z,98073.80
2019-04-03T11:01:11.232Z,98070.37
2019-04-03T11:03:39.530Z,98073.80
2019-04-03T11:06:07.746Z,98067.31
2019-04-03T11:08:36.030Z,98061.59
2019-04-03T11:11:05.107Z,98054.11
2019-04-03T11:13:34.401Z,98049.67
2019-04-03T11:16:02.945Z,98041.13
2019-04-03T11:18:31.419Z,98044.30
2019-04-03T11:20:59.999Z,98041.02
2019-04-03T11:23:38.171Z,98039.53
2019-04-03T11:25:58.436Z,98049.09
2019-04-03T11:28:26.924Z,98041.19
2019-04-03T11:30:56.333Z,98045.66
2019-04-03T11:33:25.477Z,98044.14
2019-04-03T11:35:54.477Z,98014.05
2019-04-03T11:38:27.995Z,98033.02
2019-04-03T11:40:52.782Z,98032.45
2019-04-03T11:43:21.047Z,98036.00
2019-04-03T11:45:49.585Z,98036.76
2019-04-03T11:48:17.973Z,98031.35
2019-04-03T11:50:46.816Z,98022.94
2019-04-03T11:53:15.003Z,98028.69
2019-04-03T11:55:43.287Z,98029.24
2019-04-03T11:58:11.703Z,98022.46
2019-04-03T12:00:41.580Z,98015.72
2019-04-03T12:03:11.343Z,98005.52
2019-04-03T12:05:39.773Z,98015.94
2019-04-03T12:08:08.551Z,98014.70
2019-04-03T12:10:37.618Z,98013.40
2019-04-03T12:13:05.923Z,98010.32
2019-04-03T12:15:34.833Z,98019.31
2019-04-03T12:18:03.192Z,98029.07
2019-04-03T12:20:31.710Z,98023.41
2019-04-03T12:22:59.937Z,98018.61
2019-04-03T12:25:28.507Z,98007.47
2019-04-03T12:27:56.860Z,98010.87
2019-04-03T12:30:26.829Z,98015.70
2019-04-03T12:32:55.689Z,98024.37
2019-04-03T12:35:24.043Z,98024.01
2019-04-03T12:37:52.347Z,98024.02
2019-04-03T12:40:20.817Z,98019.73
2019-04-03T12:42:49.134Z,98016.27
2019-04-03T12:45:18.634Z,98024.38
2019-04-03T12:47:47.174Z,98020.87
2019-04-03T12:50:15.578Z,98019.13
2019-04-03T12:52:44.931Z,98005.27
2019-04-03T12:55:14.495Z,98006.94
2019-04-03T12:57:43.024Z,97993.63
2019-04-03T13:00:13.088Z,97989.39
2019-04-03T13:02:42.393Z,97994.22
2019-04-03T13:05:11.057Z,97986.55
2019-04-03T13:07:39.395Z,97986.13
2019-04-03T13:10:08.877Z,97983.59
2019-04-03T13:12:37.323Z,97977.15
2019-04-03T13:15:09.263Z,97972.38
2019-04-03T13:17:38.203Z,97968.52
2019-04-03T13:20:07.153Z,97975.39
2019-04-03T13:22:36.065Z,97988.23
2019-04-03T13:25:06.447Z,97982.56
2019-04-03T13:27:35.018Z,97970.98
2019-04-03T13:30:05.628Z,97960.20
2019-04-03T13:32:34.392Z,97965.75
2019-04-03T13:35:04.616Z,97956.67
2019-04-03T13:37:33.037Z,97945.91
2019-04-03T13:40:01.597Z,97942.04
2019-04-03T13:42:31.697Z,97922.34
2019-04-03T13:45:00.407Z,97910.83
2019-04-03T13:47:28.640Z,97909.97
2019-04-03T13:49:57.404Z,97912.65
2019-04-03T13:52:37.797Z,97907.08
2019-04-03T13:54:58.239Z,97907.45
2019-04-03T13:57:26.089Z,97914.72
2019-04-03T13:59:59.588Z,97917.72
2019-04-03T14:02:25.121Z,97918.97
2019-04-03T14:04:54.685Z,97919.86
2019-04-03T14:07:23.503Z,97924.09
2019-04-03T14:09:54.769Z,97936.84
2019-04-03T14:12:22.333Z,97938.94
2019-04-03T14:14:50.627Z,97938.05
2019-04-03T14:17:18.899Z,97931.13
2019-04-03T14:19:50.584Z,97919.00
2019-04-03T14:22:17.739Z,97912.23
2019-04-03T14:24:50.968Z,97904.13
2019-04-03T14:27:21.836Z,97894.70
2019-04-03T14:29:46.296Z,97893.02
2019-04-03T14:32:14.799Z,97883.17
2019-04-03T14:34:43.126Z,97872.37
2019-04-03T14:37:12.304Z,97870.23
2019-04-03T14:39:41.821Z,97873.66
2019-04-03T14:42:10.503Z,97865.91
2019-04-03T14:44:40.986Z,97856.02
2019-04-03T14:47:09.184Z,97851.71
2019-04-03T14:49:37.411Z,97853.86
2019-04-03T14:52:05.660Z,97853.44
2019-04-03T14:54:33.986Z,97867.63
2019-04-03T14:57:11.110Z,97875.81
2019-04-03T14:59:34.681Z,97875.76
2019-04-03T15:02:02.601Z,97864.08
2019-04-03T15:04:36.063Z,97865.78
2019-04-03T15:07:05.056Z,97871.39
2019-04-03T15:09:31.997Z,97861.44
2019-04-03T15:12:00.647Z,97865.30
2019-04-03T15:14:29.588Z,97857.55
2019-04-03T15:16:58.051Z,97863.58
2019-04-03T15:19:26.289Z,97876.44
2019-04-03T15:21:56.760Z,97882.71
2019-04-03T15:24:24.708Z,97884.81
2019-04-03T15:26:54.020Z,97873.44
2019-04-03T15:29:23.027Z,97872.00
2019-04-03T15:31:51.556Z,97861.55
2019-04-03T15:34:19.802Z,97871.39
2019-04-03T15:36:50.584Z,97868.77
2019-04-03T15:39:18.351Z,97867.90
2019-04-03T15:41:46.534Z,97877.76
2019-04-03T15:44:15.235Z,97881.58
2019-04-03T15:46:43.763Z,97884.94
2019-04-03T15:49:12.119Z,97898.07
2019-04-03T15:51:40.509Z,97898.54
2019-04-03T15:54:09.057Z,97895.10
2019-04-03T15:56:37.633Z,97898.02
2019-04-03T15:59:06.241Z,97905.54
2019-04-03T16:01:34.909Z,97899.47
2019-04-03T16:04:03.441Z,97892.88
2019-04-03T16:06:33.242Z,97889.25
2019-04-03T16:09:01.615Z,97878.31
2019-04-03T16:11:30.812Z,97861.25
2019-04-03T16:14:00.233Z,97861.64
2019-04-03T16:16:29.369Z,97862.61
2019-04-03T16:18:58.238Z,97864.92
2019-04-03T16:21:29.395Z,97863.23
2019-04-03T16:23:56.422Z,97868.86
2019-04-03T16:26:24.998Z,97870.37
2019-04-03T16:28:56.251Z,97862.78
2019-04-03T16:31:23.720Z,97857.80
2019-04-03T16:33:52.355Z,97864.98
2019-04-03T16:36:20.852Z,97860.98
2019-04-03T16:38:49.469Z,97860.78
2019-04-03T16:41:17.910Z,97855.99
2019-04-03T16:43:46.110Z,97848.64
2019-04-03T16:46:14.575Z,97836.58
2019-04-03T16:48:43.303Z,97840.39
2019-04-03T16:51:11.543Z,97836.92
2019-04-03T16:53:40.143Z,97833.45
2019-04-03T16:56:08.400Z,97845.82
2019-04-03T16:58:37.134Z,97862.00
2019-04-03T17:01:05.401Z,97878.59
2019-04-03T17:03:33.833Z,97883.77
2019-04-03T17:06:02.150Z,97897.72
2019-04-03T17:08:30.361Z,97913.48
2019-04-03T17:10:58.937Z,97909.55
2019-04-03T17:13:27.164Z,97907.94
2019-04-03T17:15:56.083Z,97916.08
2019-04-03T17:18:24.402Z,97923.55
2019-04-03T17:20:55.163Z,97936.00
2019-04-03T17:23:23.323Z,97940.34
2019-04-03T17:25:51.821Z,97931.44
2019-04-03T17:28:20.018Z,97923.70
2019-04-03T17:30:51.325Z,97925.33
2019-04-03T17:33:18.198Z,97908.58
2019-04-03T17:35:48.292Z,97932.91
2019-04-03T17:38:16.645Z,97955.12
2019-04-03T17:40:44.887Z,97964.09
2019-04-03T17:43:13.915Z,97966.24
2019-04-03T17:45:43.103Z,97966.99
2019-04-03T17:48:11.339Z,97973.28
2019-04-03T17:50:39.566Z,97977.08
2019-04-03T17:53:07.797Z,97977.41
2019-04-03T17:55:36.261Z,97982.20
2019-04-03T17:58:04.526Z,97978.73
2019-04-03T18:00:32.750Z,97983.03
2019-04-03T18:03:01.211Z,97964.09
2019-04-03T18:05:29.667Z,97955.08
2019-04-03T18:07:58.898Z,97948.14
2019-04-03T18:10:27.601Z,97942.06
2019-04-03T18:12:57.629Z,97949.06
2019-04-03T18:15:27.545Z,97961.05
2019-04-03T18:17:55.842Z,97960.34
2019-04-03T18:20:25.162Z,97963.81
2019-04-03T18:22:53.645Z,97960.80
2019-04-03T18:25:21.873Z,97959.06
2019-04-03T18:27:50.119Z,97960.26
2019-04-03T18:30:20.229Z,97961.50
2019-04-03T18:32:48.465Z,97972.20
2019-04-03T18:35:16.871Z,97977.42
2019-04-03T18:37:45.352Z,97968.56
2019-04-03T18:40:15.182Z,97966.47
2019-04-03T18:42:43.551Z,97970.52
2019-04-03T18:45:24.539Z,97969.68
2019-04-03T18:47:45.905Z,97965.72
2019-04-03T18:50:12.538Z,97961.05
2019-04-03T18:52:40.738Z,97974.84
2019-04-03T18:55:09.150Z,97993.25
2019-04-03T18:57:37.392Z,97996.69
2019-04-03T19:00:09.687Z,98011.00
2019-04-03T19:02:37.995Z,98007.94
2019-04-03T19:05:13.554Z,97985.60
2019-04-03T19:07:39.513Z,97988.45
2019-04-03T19:10:08.246Z,97975.92
2019-04-03T19:12:36.561Z,97953.59
2019-04-03T19:15:06.340Z,97951.91
2019-04-03T19:17:34.572Z,97949.09
2019-04-03T19:20:10.366Z,97954.58
2019-04-03T19:22:32.767Z,97961.80
2019-04-03T19:25:01.006Z,97954.91
2019-04-03T19:27:29.232Z,97949.23
2019-04-03T19:29:57.474Z,97949.12
2019-04-03T19:32:25.731Z,97957.98
2019-04-03T19:34:54.003Z,97962.60
2019-04-03T19:37:22.415Z,97962.84
2019-04-03T19:39:50.673Z,97968.78
2019-04-03T19:42:18.889Z,97979.61
2019-04-03T19:44:49.111Z,97978.02
2019-04-03T19:47:17.087Z,97958.85
2019-04-03T19:49:47.922Z,97942.25
2019-04-03T19:52:15.581Z,97938.82
2019-04-03T19:54:43.828Z,97940.10
2019-04-03T19:57:12.053Z,97951.22
2019-04-03T19:59:40.618Z,97952.81
2019-04-03T20:02:09.621Z,97922.00
2019-04-03T20:04:38.380Z,97922.41
2019-04-03T20:07:06.885Z,97927.58
2019-04-03T20:09:35.364Z,97922.83
2019-04-03T20:12:06.804Z,97916.79
2019-04-03T20:14:33.564Z,97918.16
2019-04-03T20:17:02.040Z,97934.06
2019-04-03T20:19:30.277Z,97937.55
2019-04-03T20:21:58.514Z,97939.24
2019-04-03T20:24:27.087Z,97952.49
2019-04-03T20:26:55.307Z,97970.33
2019-04-03T20:29:23.534Z,97988.34
2019-04-03T20:31:52.010Z,97988.77
2019-04-03T20:34:20.259Z,97975.14
2019-04-03T20:36:51.018Z,97969.97
2019-04-03T20:39:18.722Z,97958.49
2019-04-03T20:41:47.273Z,97956.66
2019-04-03T20:44:17.460Z,97971.98
2019-04-03T20:46:45.920Z,97966.77
2019-04-03T20:49:14.148Z,97972.25
2019-04-03T20:51:42.395Z,97988.85
2019-04-03T20:54:11.889Z,97971.75
2019-04-03T20:56:40.244Z,97959.76
2019-04-03T20:59:11.241Z,97942.89
2019-04-03T21:01:38.433Z,97927.08
2019-04-03T21:04:06.668Z,97924.02
2019-04-03T21:06:37.093Z,97926.53
2019-04-03T21:09:06.755Z,97917.10
2019-04-03T21:11:35.069Z,97926.53
2019-04-03T21:14:05.657Z,97931.33
2019-04-03T21:16:33.658Z,97939.14
2019-04-03T21:19:02.122Z,97938.36
2019-04-03T21:21:30.362Z,97933.70
2019-04-03T21:23:58.819Z,97929.45
2019-04-03T21:26:27.056Z,97917.88
2019-04-03T21:28:55.288Z,97914.41
2019-04-03T21:31:23.971Z,97909.52
2019-04-03T21:33:53.477Z,97904.41
2019-04-03T21:36:21.713Z,97905.59
2019-04-03T21:38:49.995Z,97914.00
2019-04-03T21:41:20.478Z,97929.77
2019-04-03T21:43:48.189Z,97947.08
2019-04-03T21:46:16.665Z,97947.40
2019-04-03T21:48:45.272Z,97946.94
2019-04-03T21:51:13.511Z,97938.56
2019-04-03T21:53:41.974Z,97969.45
2019-04-03T21:56:10.217Z,97983.84
2019-04-03T21:58:39.754Z,97997.96
2019-04-03T22:01:14.775Z,98002.21
2019-04-03T22:03:43.418Z,97973.66
2019-04-03T22:06:11.652Z,97958.30
2019-04-03T22:08:39.897Z,97952.77
2019-04-03T22:11:08.136Z,97928.61
2019-04-03T22:13:38.240Z,97928.25
2019-04-03T22:16:06.395Z,97918.52
2019-04-03T22:18:34.574Z,97914.77
2019-04-03T22:21:02.811Z,97909.28
2019-04-03T22:23:31.056Z,97903.84
2019-04-03T22:25:59.289Z,97910.66
2019-04-03T22:28:27.536Z,97911.89
2019-04-03T22:30:55.760Z,97905.45
2019-04-03T22:33:24.239Z,97916.14
2019-04-03T22:35:54.041Z,97921.22
2019-04-03T22:38:22.277Z,97925.09
2019-04-03T22:40:50.582Z,97934.06
2019-04-03T22:43:18.828Z,97929.81
2019-04-03T22:45:47.290Z,97924.28
2019-04-03T22:48:15.526Z,97913.58
2019-04-03T22:50:43.758Z,97906.73
2019-04-03T22:53:12.001Z,97917.92
2019-04-03T22:55:40.233Z,97928.58
2019-04-03T22:58:08.470Z,97921.36
2019-04-03T23:00:36.934Z,97908.14
2019-04-03T23:03:05.245Z,97908.88
2019-04-03T23:05:34.013Z,97905.77
2019-04-03T23:08:02.315Z,97911.84
2019-04-03T23:10:30.727Z,97924.69
2019-04-03T23:12:59.282Z,97934.56
2019-04-03T23:15:27.745Z,97921.72
2019-04-03T23:17:55.988Z,97920.94
2019-04-03T23:20:24.243Z,97922.22
2019-04-03T23:22:52.462Z,97926.89
2019-04-03T23:25:20.713Z,97929.85
2019-04-03T23:27:49.393Z,97927.57
2019-04-03T23:30:17.702Z,97919.11
2019-04-03T23:32:46.493Z,97909.74
2019-04-03T23:35:14.776Z,97906.73
2019-04-03T23:37:43.008Z,97909.66
2019-04-03T23:40:11.800Z,97912.16
2019-04-03T23:42:40.040Z,97905.27
2019-04-03T23:45:09.056Z,97894.12
2019-04-03T23:47:37.277Z,97889.81
2019-04-03T23:50:07.061Z,97878.66
2019-04-03T23:52:35.297Z,97864.91
2019-04-03T23:55:05.338Z,97858.01
2019-04-03T23:57:33.842Z,97854.13
